sensor_id;sensor_type;location;lat;lon;timestamp;temperature;humidity
7216;DHT22;3649;48.798;9.798;2023-08-12T00:00:20;22.90;99.90
7216;DHT22;3649;48.798;9.798;2023-08-12T00:02:47;22.90;99.90
7216;DHT22;3649;48.798;9.798;2023-08-12T00:05:14;22.80;99.90
7216;DHT22;3649;48.798;9.798;2023-08-12T00:07:42;22.80;99.90
7216;DHT22;3649;48.798;9.798;2023-08-12T00:10:11;22.80;99.90
7216;DHT22;3649;48.798;9.798;2023-08-12T00:12:39;22.70;99.90
7216;DHT22;3649;48.798;9.798;2023-08-12T00:15:07;22.70;99.90
7216;DHT22;3649;48.798;9.798;2023-08-12T00:17:35;22.70;99.90
7216;DHT22;3649;48.798;9.798;2023-08-12T00:20:09;22.70;99.90
7216;DHT22;3649;48.798;9.798;2023-08-12T00:22:38;22.60;99.90
7216;DHT22;3649;48.798;9.798;2023-08-12T00:25:06;22.60;99.90
7216;DHT22;3649;48.798;9.798;2023-08-12T00:27:33;22.60;99.90
7216;DHT22;3649;48.798;9.798;2023-08-12T00:30:00;22.60;99.90
7216;DHT22;3649;48.798;9.798;2023-08-12T00:32:27;22.60;99.90
7216;DHT22;3649;48.798;9.798;2023-08-12T00:34:54;22.60;99.90
7216;DHT22;3649;48.798;9.798;2023-08-12T00:37:21;22.60;99.90
7216;DHT22;3649;48.798;9.798;2023-08-12T00:39:48;22.50;99.90
7216;DHT22;3649;48.798;9.798;2023-08-12T00:42:15;22.50;99.90
7216;DHT22;3649;48.798;9.798;2023-08-12T00:44:41;22.50;99.90
7216;DHT22;3649;48.798;9.798;2023-08-12T00:47:08;22.60;99.90
7216;DHT22;3649;48.798;9.798;2023-08-12T00:49:36;22.60;99.90
7216;DHT22;3649;48.798;9.798;2023-08-12T00:52:05;22.60;99.90
7216;DHT22;3649;48.798;9.798;2023-08-12T00:54:32;22.60;99.90
7216;DHT22;3649;48.798;9.798;2023-08-12T00:56:59;22.60;99.90
7216;DHT22;3649;48.798;9.798;2023-08-12T00:59:26;22.60;99.90
7216;DHT22;3649;48.798;9.798;2023-08-12T01:01:53;22.50;99.90
7216;DHT22;3649;48.798;9.798;2023-08-12T01:04:20;22.50;99.90
7216;DHT22;3649;48.798;9.798;2023-08-12T01:06:47;22.40;99.90
7216;DHT22;3649;48.798;9.798;2023-08-12T01:09:14;22.40;99.90
7216;DHT22;3649;48.798;9.798;2023-08-12T01:12:09;22.40;99.90
7216;DHT22;3649;48.798;9.798;2023-08-12T01:15:07;22.30;99.90
7216;DHT22;3649;48.798;9.798;2023-08-12T01:17:37;22.20;99.90
7216;DHT22;3649;48.798;9.798;2023-08-12T01:20:07;22.20;99.90
7216;DHT22;3649;48.798;9.798;2023-08-12T01:22:44;22.20;99.90
7216;DHT22;3649;48.798;9.798;2023-08-12T01:25:11;22.20;99.90
7216;DHT22;3649;48.798;9.798;2023-08-12T01:27:38;22.10;99.90
7216;DHT22;3649;48.798;9.798;2023-08-12T01:30:07;22.20;99.90
7216;DHT22;3649;48.798;9.798;2023-08-12T01:32:43;22.20;99.90
7216;DHT22;3649;48.798;9.798;2023-08-12T01:35:20;22.20;99.90
7216;DHT22;3649;48.798;9.798;2023-08-12T01:37:50;22.20;99.90
7216;DHT22;3649;48.798;9.798;2023-08-12T01:40:19;22.20;99.90
7216;DHT22;3649;48.798;9.798;2023-08-12T01:42:46;22.20;99.90
7216;DHT22;3649;48.798;9.798;2023-08-12T01:45:14;22.10;99.90
7216;DHT22;3649;48.798;9.798;2023-08-12T01:47:44;22.10;99.90
7216;DHT22;3649;48.798;9.798;2023-08-12T01:50:11;22.10;99.90
7216;DHT22;3649;48.798;9.798;2023-08-12T01:52:38;22.00;99.90
7216;DHT22;3649;48.798;9.798;2023-08-12T01:55:05;22.00;99.90
7216;DHT22;3649;48.798;9.798;2023-08-12T01:57:32;22.00;99.90
7216;DHT22;3649;48.798;9.798;2023-08-12T02:00:01;22.00;99.90
7216;DHT22;3649;48.798;9.798;2023-08-12T02:02:28;22.00;99.90
7216;DHT22;3649;48.798;9.798;2023-08-12T02:04:55;22.00;99.90
7216;DHT22;3649;48.798;9.798;2023-08-12T02:07:22;22.00;99.90
7216;DHT22;3649;48.798;9.798;2023-08-12T02:09:49;22.00;99.90
7216;DHT22;3649;48.798;9.798;2023-08-12T02:12:16;21.90;99.90
7216;DHT22;3649;48.798;9.798;2023-08-12T02:14:43;21.90;99.90
7216;DHT22;3649;48.798;9.798;2023-08-12T02:17:10;22.00;99.90
7216;DHT22;3649;48.798;9.798;2023-08-12T02:19:37;21.90;99.90
7216;DHT22;3649;48.798;9.798;2023-08-12T02:22:04;21.90;99.90
7216;DHT22;3649;48.798;9.798;2023-08-12T02:24:31;21.80;99.90
7216;DHT22;3649;48.798;9.798;2023-08-12T02:26:58;21.80;99.90
7216;DHT22;3649;48.798;9.798;2023-08-12T02:29:25;21.80;99.90
7216;DHT22;3649;48.798;9.798;2023-08-12T02:31:51;21.70;99.90
7216;DHT22;3649;48.798;9.798;2023-08-12T02:34:18;21.70;99.90
7216;DHT22;3649;48.798;9.798;2023-08-12T02:36:45;21.70;99.90
7216;DHT22;3649;48.798;9.798;2023-08-12T02:39:12;21.70;99.90
7216;DHT22;3649;48.798;9.798;2023-08-12T02:41:39;21.70;99.90
7216;DHT22;3649;48.798;9.798;2023-08-12T02:44:06;21.70;99.90
7216;DHT22;3649;48.798;9.798;2023-08-12T02:46:33;21.70;99.90
7216;DHT22;3649;48.798;9.798;2023-08-12T02:49:00;21.70;99.90
7216;DHT22;3649;48.798;9.798;2023-08-12T02:51:26;21.70;99.90
7216;DHT22;3649;48.798;9.798;2023-08-12T02:53:53;21.70;99.90
7216;DHT22;3649;48.798;9.798;2023-08-12T02:56:20;21.70;99.90
7216;DHT22;3649;48.798;9.798;2023-08-12T02:58:47;21.70;99.90
7216;DHT22;3649;48.798;9.798;2023-08-12T03:01:14;21.70;99.90
7216;DHT22;3649;48.798;9.798;2023-08-12T03:03:42;21.80;99.90
7216;DHT22;3649;48.798;9.798;2023-08-12T03:06:09;21.80;99.90
7216;DHT22;3649;48.798;9.798;2023-08-12T03:08:36;21.80;99.90
7216;DHT22;3649;48.798;9.798;2023-08-12T03:11:03;21.80;99.90
7216;DHT22;3649;48.798;9.798;2023-08-12T03:13:31;21.80;99.90
7216;DHT22;3649;48.798;9.798;2023-08-12T03:15:58;21.70;99.90
7216;DHT22;3649;48.798;9.798;2023-08-12T03:18:25;21.70;99.90
7216;DHT22;3649;48.798;9.798;2023-08-12T03:20:51;21.80;99.90
7216;DHT22;3649;48.798;9.798;2023-08-12T03:23:18;21.70;99.90
7216;DHT22;3649;48.798;9.798;2023-08-12T03:25:47;21.70;99.90
7216;DHT22;3649;48.798;9.798;2023-08-12T03:28:15;21.70;99.90
7216;DHT22;3649;48.798;9.798;2023-08-12T03:30:42;21.60;99.90
7216;DHT22;3649;48.798;9.798;2023-08-12T03:33:16;21.60;99.90
7216;DHT22;3649;48.798;9.798;2023-08-12T03:35:45;21.50;99.90
7216;DHT22;3649;48.798;9.798;2023-08-12T03:38:13;21.50;99.90
7216;DHT22;3649;48.798;9.798;2023-08-12T03:40:41;21.60;99.90
7216;DHT22;3649;48.798;9.798;2023-08-12T03:43:08;21.50;99.90
7216;DHT22;3649;48.798;9.798;2023-08-12T03:45:42;21.50;99.90
7216;DHT22;3649;48.798;9.798;2023-08-12T03:48:10;21.50;99.90
7216;DHT22;3649;48.798;9.798;2023-08-12T03:50:38;21.50;99.90
7216;DHT22;3649;48.798;9.798;2023-08-12T03:53:05;21.60;99.90
7216;DHT22;3649;48.798;9.798;2023-08-12T03:55:35;21.60;99.90
7216;DHT22;3649;48.798;9.798;2023-08-12T03:58:02;21.50;99.90
7216;DHT22;3649;48.798;9.798;2023-08-12T04:00:29;21.50;99.90
7216;DHT22;3649;48.798;9.798;2023-08-12T04:02:56;21.50;99.90
7216;DHT22;3649;48.798;9.798;2023-08-12T04:05:23;21.50;99.90
7216;DHT22;3649;48.798;9.798;2023-08-12T04:07:50;21.50;99.90
7216;DHT22;3649;48.798;9.798;2023-08-12T04:10:17;21.50;99.90
7216;DHT22;3649;48.798;9.798;2023-08-12T04:12:44;21.50;99.90
7216;DHT22;3649;48.798;9.798;2023-08-12T04:15:11;21.50;99.90
7216;DHT22;3649;48.798;9.798;2023-08-12T04:17:38;21.50;99.90
7216;DHT22;3649;48.798;9.798;2023-08-12T04:20:08;21.50;99.90
7216;DHT22;3649;48.798;9.798;2023-08-12T04:22:35;21.40;99.90
7216;DHT22;3649;48.798;9.798;2023-08-12T04:25:03;21.40;99.90
7216;DHT22;3649;48.798;9.798;2023-08-12T04:27:30;21.40;99.90
7216;DHT22;3649;48.798;9.798;2023-08-12T04:29:56;21.40;99.90
7216;DHT22;3649;48.798;9.798;2023-08-12T04:32:23;21.40;99.90
7216;DHT22;3649;48.798;9.798;2023-08-12T04:34:50;21.40;99.90
7216;DHT22;3649;48.798;9.798;2023-08-12T04:37:17;21.40;99.90
7216;DHT22;3649;48.798;9.798;2023-08-12T04:39:44;21.40;99.90
7216;DHT22;3649;48.798;9.798;2023-08-12T04:42:12;21.40;99.90
7216;DHT22;3649;48.798;9.798;2023-08-12T04:44:39;21.50;99.90
7216;DHT22;3649;48.798;9.798;2023-08-12T04:47:06;21.50;99.90
7216;DHT22;3649;48.798;9.798;2023-08-12T04:49:33;21.50;99.90
7216;DHT22;3649;48.798;9.798;2023-08-12T04:52:00;21.40;99.90
7216;DHT22;3649;48.798;9.798;2023-08-12T04:54:26;21.40;99.90
7216;DHT22;3649;48.798;9.798;2023-08-12T04:56:53;21.50;99.90
7216;DHT22;3649;48.798;9.798;2023-08-12T04:59:20;21.50;99.90
7216;DHT22;3649;48.798;9.798;2023-08-12T05:01:47;21.50;99.90
7216;DHT22;3649;48.798;9.798;2023-08-12T05:04:30;21.60;99.90
7216;DHT22;3649;48.798;9.798;2023-08-12T05:06:57;21.60;99.90
7216;DHT22;3649;48.798;9.798;2023-08-12T05:09:24;21.70;99.90
7216;DHT22;3649;48.798;9.798;2023-08-12T05:11:51;21.80;99.90
7216;DHT22;3649;48.798;9.798;2023-08-12T05:14:18;21.90;99.90
7216;DHT22;3649;48.798;9.798;2023-08-12T05:16:45;21.90;99.90
7216;DHT22;3649;48.798;9.798;2023-08-12T05:19:11;21.90;99.90
7216;DHT22;3649;48.798;9.798;2023-08-12T05:21:38;22.00;99.90
7216;DHT22;3649;48.798;9.798;2023-08-12T05:24:05;22.00;99.90
7216;DHT22;3649;48.798;9.798;2023-08-12T05:26:33;22.00;99.90
7216;DHT22;3649;48.798;9.798;2023-08-12T05:29:00;22.00;99.90
7216;DHT22;3649;48.798;9.798;2023-08-12T05:31:27;22.00;99.90
7216;DHT22;3649;48.798;9.798;2023-08-12T05:33:54;22.00;99.90
7216;DHT22;3649;48.798;9.798;2023-08-12T05:36:21;22.00;99.90
7216;DHT22;3649;48.798;9.798;2023-08-12T05:38:48;22.10;99.90
7216;DHT22;3649;48.798;9.798;2023-08-12T05:41:15;22.10;99.90
7216;DHT22;3649;48.798;9.798;2023-08-12T05:43:42;22.10;99.90
7216;DHT22;3649;48.798;9.798;2023-08-12T05:46:10;22.10;99.90
7216;DHT22;3649;48.798;9.798;2023-08-12T05:48:37;22.10;99.90
7216;DHT22;3649;48.798;9.798;2023-08-12T05:51:04;22.10;99.90
7216;DHT22;3649;48.798;9.798;2023-08-12T05:53:31;22.20;99.90
7216;DHT22;3649;48.798;9.798;2023-08-12T05:55:59;22.20;99.90
7216;DHT22;3649;48.798;9.798;2023-08-12T05:58:26;22.20;99.90
7216;DHT22;3649;48.798;9.798;2023-08-12T06:00:53;22.20;99.90
7216;DHT22;3649;48.798;9.798;2023-08-12T06:03:20;22.20;99.90
7216;DHT22;3649;48.798;9.798;2023-08-12T06:05:47;22.20;99.90
7216;DHT22;3649;48.798;9.798;2023-08-12T06:08:14;22.30;99.90
7216;DHT22;3649;48.798;9.798;2023-08-12T06:10:41;22.30;99.90
7216;DHT22;3649;48.798;9.798;2023-08-12T06:13:08;22.30;99.90
7216;DHT22;3649;48.798;9.798;2023-08-12T06:15:35;22.30;99.90
7216;DHT22;3649;48.798;9.798;2023-08-12T06:18:03;22.40;99.90
7216;DHT22;3649;48.798;9.798;2023-08-12T06:20:30;22.40;99.90
7216;DHT22;3649;48.798;9.798;2023-08-12T06:22:57;22.40;99.90
7216;DHT22;3649;48.798;9.798;2023-08-12T06:25:24;22.40;99.90
7216;DHT22;3649;48.798;9.798;2023-08-12T06:27:51;22.40;99.90
7216;DHT22;3649;48.798;9.798;2023-08-12T06:30:18;22.40;99.90
7216;DHT22;3649;48.798;9.798;2023-08-12T06:32:44;22.40;99.90
7216;DHT22;3649;48.798;9.798;2023-08-12T06:35:11;22.40;99.90
7216;DHT22;3649;48.798;9.798;2023-08-12T06:37:38;22.50;99.90
7216;DHT22;3649;48.798;9.798;2023-08-12T06:40:06;22.50;99.90
7216;DHT22;3649;48.798;9.798;2023-08-12T06:42:33;22.50;99.90
7216;DHT22;3649;48.798;9.798;2023-08-12T06:45:00;22.60;99.90
7216;DHT22;3649;48.798;9.798;2023-08-12T06:47:27;22.70;99.90
7216;DHT22;3649;48.798;9.798;2023-08-12T06:49:56;22.70;99.90
7216;DHT22;3649;48.798;9.798;2023-08-12T06:52:23;22.70;99.90
7216;DHT22;3649;48.798;9.798;2023-08-12T06:54:50;22.80;99.90
7216;DHT22;3649;48.798;9.798;2023-08-12T06:57:17;22.80;99.90
7216;DHT22;3649;48.798;9.798;2023-08-12T06:59:44;22.80;99.90
7216;DHT22;3649;48.798;9.798;2023-08-12T07:02:12;22.80;99.90
7216;DHT22;3649;48.798;9.798;2023-08-12T07:04:39;22.80;99.90
7216;DHT22;3649;48.798;9.798;2023-08-12T07:07:06;22.80;99.90
7216;DHT22;3649;48.798;9.798;2023-08-12T07:09:33;22.90;99.90
7216;DHT22;3649;48.798;9.798;2023-08-12T07:11:59;22.90;99.90
7216;DHT22;3649;48.798;9.798;2023-08-12T07:14:28;22.90;99.90
7216;DHT22;3649;48.798;9.798;2023-08-12T07:16:55;22.90;99.90
7216;DHT22;3649;48.798;9.798;2023-08-12T07:19:22;22.90;99.90
7216;DHT22;3649;48.798;9.798;2023-08-12T07:21:49;22.90;99.90
7216;DHT22;3649;48.798;9.798;2023-08-12T07:24:17;22.90;99.90
7216;DHT22;3649;48.798;9.798;2023-08-12T07:26:45;22.90;99.90
7216;DHT22;3649;48.798;9.798;2023-08-12T07:29:14;23.00;99.90
7216;DHT22;3649;48.798;9.798;2023-08-12T07:31:41;23.00;99.90
7216;DHT22;3649;48.798;9.798;2023-08-12T07:34:07;23.00;99.90
7216;DHT22;3649;48.798;9.798;2023-08-12T07:36:34;23.00;99.90
7216;DHT22;3649;48.798;9.798;2023-08-12T07:39:02;23.00;99.90
7216;DHT22;3649;48.798;9.798;2023-08-12T07:41:29;23.10;99.90
7216;DHT22;3649;48.798;9.798;2023-08-12T07:43:55;23.10;99.90
7216;DHT22;3649;48.798;9.798;2023-08-12T07:46:22;23.10;99.90
7216;DHT22;3649;48.798;9.798;2023-08-12T07:48:49;23.20;99.90
7216;DHT22;3649;48.798;9.798;2023-08-12T07:51:17;23.30;99.90
7216;DHT22;3649;48.798;9.798;2023-08-12T07:53:44;23.30;99.90
7216;DHT22;3649;48.798;9.798;2023-08-12T07:56:10;23.40;99.90
7216;DHT22;3649;48.798;9.798;2023-08-12T07:58:37;23.60;99.90
7216;DHT22;3649;48.798;9.798;2023-08-12T08:01:04;23.70;99.90
7216;DHT22;3649;48.798;9.798;2023-08-12T08:03:31;23.90;99.90
7216;DHT22;3649;48.798;9.798;2023-08-12T08:05:58;24.00;99.90
7216;DHT22;3649;48.798;9.798;2023-08-12T08:08:25;24.20;99.90
7216;DHT22;3649;48.798;9.798;2023-08-12T08:10:52;24.30;99.90
7216;DHT22;3649;48.798;9.798;2023-08-12T08:13:19;24.40;99.90
7216;DHT22;3649;48.798;9.798;2023-08-12T08:15:46;24.50;99.90
7216;DHT22;3649;48.798;9.798;2023-08-12T08:18:13;24.60;99.90
7216;DHT22;3649;48.798;9.798;2023-08-12T08:20:44;24.60;99.90
7216;DHT22;3649;48.798;9.798;2023-08-12T08:23:12;24.60;99.90
7216;DHT22;3649;48.798;9.798;2023-08-12T08:25:39;24.60;99.90
7216;DHT22;3649;48.798;9.798;2023-08-12T08:28:05;24.60;99.90
7216;DHT22;3649;48.798;9.798;2023-08-12T08:30:33;24.60;99.90
7216;DHT22;3649;48.798;9.798;2023-08-12T08:32:59;24.60;99.90
7216;DHT22;3649;48.798;9.798;2023-08-12T08:35:26;24.60;99.90
7216;DHT22;3649;48.798;9.798;2023-08-12T08:37:54;24.60;99.90
7216;DHT22;3649;48.798;9.798;2023-08-12T08:40:21;24.60;99.90
7216;DHT22;3649;48.798;9.798;2023-08-12T08:42:51;24.60;99.90
7216;DHT22;3649;48.798;9.798;2023-08-12T08:45:22;24.70;99.90
7216;DHT22;3649;48.798;9.798;2023-08-12T08:47:51;24.60;99.90
7216;DHT22;3649;48.798;9.798;2023-08-12T08:50:19;24.60;99.90
7216;DHT22;3649;48.798;9.798;2023-08-12T08:52:47;24.70;99.90
7216;DHT22;3649;48.798;9.798;2023-08-12T08:55:15;24.60;99.90
7216;DHT22;3649;48.798;9.798;2023-08-12T08:57:44;24.70;99.90
7216;DHT22;3649;48.798;9.798;2023-08-12T09:00:14;24.60;99.90
7216;DHT22;3649;48.798;9.798;2023-08-12T09:02:47;24.70;99.90
7216;DHT22;3649;48.798;9.798;2023-08-12T09:05:17;24.70;99.90
7216;DHT22;3649;48.798;9.798;2023-08-12T09:07:45;24.70;99.90
7216;DHT22;3649;48.798;9.798;2023-08-12T09:10:13;24.70;99.90
7216;DHT22;3649;48.798;9.798;2023-08-12T09:12:42;24.90;99.90
7216;DHT22;3649;48.798;9.798;2023-08-12T09:15:10;25.00;99.90
7216;DHT22;3649;48.798;9.798;2023-08-12T09:17:37;25.10;99.90
7216;DHT22;3649;48.798;9.798;2023-08-12T09:20:05;25.10;99.90
7216;DHT22;3649;48.798;9.798;2023-08-12T09:22:39;25.10;99.90
7216;DHT22;3649;48.798;9.798;2023-08-12T09:25:07;25.10;99.90
7216;DHT22;3649;48.798;9.798;2023-08-12T09:27:36;25.10;99.90
7216;DHT22;3649;48.798;9.798;2023-08-12T09:30:07;26.40;99.90
7216;DHT22;3649;48.798;9.798;2023-08-12T09:32:35;25.20;99.90
7216;DHT22;3649;48.798;9.798;2023-08-12T09:35:02;25.20;99.90
7216;DHT22;3649;48.798;9.798;2023-08-12T09:37:30;25.20;99.90
7216;DHT22;3649;48.798;9.798;2023-08-12T09:39:58;25.20;99.90
7216;DHT22;3649;48.798;9.798;2023-08-12T09:42:25;25.20;99.90
7216;DHT22;3649;48.798;9.798;2023-08-12T09:44:52;25.20;99.90
7216;DHT22;3649;48.798;9.798;2023-08-12T09:47:20;25.20;99.90
7216;DHT22;3649;48.798;9.798;2023-08-12T09:49:47;25.20;99.90
7216;DHT22;3649;48.798;9.798;2023-08-12T09:52:14;25.20;99.90
7216;DHT22;3649;48.798;9.798;2023-08-12T09:54:41;25.30;99.90
7216;DHT22;3649;48.798;9.798;2023-08-12T09:57:10;25.30;99.90
7216;DHT22;3649;48.798;9.798;2023-08-12T09:59:41;25.30;99.90
7216;DHT22;3649;48.798;9.798;2023-08-12T10:02:13;25.30;99.90
7216;DHT22;3649;48.798;9.798;2023-08-12T10:04:45;25.30;99.90
7216;DHT22;3649;48.798;9.798;2023-08-12T10:07:13;25.30;99.90
7216;DHT22;3649;48.798;9.798;2023-08-12T10:09:41;25.20;99.90
7216;DHT22;3649;48.798;9.798;2023-08-12T10:12:10;25.30;99.90
7216;DHT22;3649;48.798;9.798;2023-08-12T10:14:40;25.30;99.90
7216;DHT22;3649;48.798;9.798;2023-08-12T10:17:07;25.30;99.90
7216;DHT22;3649;48.798;9.798;2023-08-12T10:19:36;25.30;99.90
7216;DHT22;3649;48.798;9.798;2023-08-12T10:22:03;25.30;99.90
7216;DHT22;3649;48.798;9.798;2023-08-12T10:24:31;25.30;99.90
7216;DHT22;3649;48.798;9.798;2023-08-12T10:27:01;25.30;99.90
7216;DHT22;3649;48.798;9.798;2023-08-12T10:29:29;25.30;99.90
7216;DHT22;3649;48.798;9.798;2023-08-12T10:31:57;25.40;99.90
7216;DHT22;3649;48.798;9.798;2023-08-12T10:34:25;25.40;99.90
7216;DHT22;3649;48.798;9.798;2023-08-12T10:36:57;25.40;99.90
7216;DHT22;3649;48.798;9.798;2023-08-12T10:39:32;25.40;99.90
7216;DHT22;3649;48.798;9.798;2023-08-12T10:41:59;25.50;99.90
7216;DHT22;3649;48.798;9.798;2023-08-12T10:44:43;25.60;99.90
7216;DHT22;3649;48.798;9.798;2023-08-12T10:47:16;25.70;99.90
7216;DHT22;3649;48.798;9.798;2023-08-12T10:49:47;25.80;99.90
7216;DHT22;3649;48.798;9.798;2023-08-12T10:52:31;25.90;99.90
7216;DHT22;3649;48.798;9.798;2023-08-12T10:57:49;26.00;99.90
7216;DHT22;3649;48.798;9.798;2023-08-12T11:00:23;26.00;99.90
7216;DHT22;3649;48.798;9.798;2023-08-12T11:02:53;26.00;99.90
7216;DHT22;3649;48.798;9.798;2023-08-12T11:05:20;26.00;99.90
7216;DHT22;3649;48.798;9.798;2023-08-12T11:07:58;26.10;99.90
7216;DHT22;3649;48.798;9.798;2023-08-12T11:10:30;26.20;99.90
7216;DHT22;3649;48.798;9.798;2023-08-12T11:13:01;26.30;99.90
7216;DHT22;3649;48.798;9.798;2023-08-12T11:18:17;26.60;99.90
7216;DHT22;3649;48.798;9.798;2023-08-12T11:20:45;26.70;99.90
7216;DHT22;3649;48.798;9.798;2023-08-12T11:23:13;26.70;99.90
7216;DHT22;3649;48.798;9.798;2023-08-12T11:25:42;26.70;99.90
7216;DHT22;3649;48.798;9.798;2023-08-12T11:28:10;26.80;99.90
7216;DHT22;3649;48.798;9.798;2023-08-12T11:30:40;26.80;99.90
7216;DHT22;3649;48.798;9.798;2023-08-12T11:33:09;26.80;99.90
7216;DHT22;3649;48.798;9.798;2023-08-12T11:35:36;26.70;99.90
7216;DHT22;3649;48.798;9.798;2023-08-12T11:38:05;26.70;99.90
7216;DHT22;3649;48.798;9.798;2023-08-12T11:40:32;26.60;99.90
7216;DHT22;3649;48.798;9.798;2023-08-12T11:42:59;26.60;99.90
7216;DHT22;3649;48.798;9.798;2023-08-12T11:45:26;26.70;99.90
7216;DHT22;3649;48.798;9.798;2023-08-12T11:47:55;26.70;99.90
7216;DHT22;3649;48.798;9.798;2023-08-12T11:50:27;26.80;99.90
7216;DHT22;3649;48.798;9.798;2023-08-12T11:52:56;26.70;99.90
7216;DHT22;3649;48.798;9.798;2023-08-12T11:55:23;26.70;99.90
7216;DHT22;3649;48.798;9.798;2023-08-12T11:57:51;26.60;99.90
7216;DHT22;3649;48.798;9.798;2023-08-12T12:00:19;26.60;99.90
7216;DHT22;3649;48.798;9.798;2023-08-12T12:02:55;26.60;99.90
7216;DHT22;3649;48.798;9.798;2023-08-12T12:05:25;26.60;99.90
7216;DHT22;3649;48.798;9.798;2023-08-12T12:07:53;26.60;99.90
7216;DHT22;3649;48.798;9.798;2023-08-12T12:10:20;26.50;99.90
7216;DHT22;3649;48.798;9.798;2023-08-12T12:12:48;26.50;99.90
7216;DHT22;3649;48.798;9.798;2023-08-12T12:15:15;26.50;99.90
7216;DHT22;3649;48.798;9.798;2023-08-12T12:17:45;26.60;99.90
7216;DHT22;3649;48.798;9.798;2023-08-12T12:20:12;26.60;99.90
7216;DHT22;3649;48.798;9.798;2023-08-12T12:22:42;26.80;99.90
7216;DHT22;3649;48.798;9.798;2023-08-12T12:25:13;26.90;99.90
7216;DHT22;3649;48.798;9.798;2023-08-12T12:27:42;27.00;99.90
7216;DHT22;3649;48.798;9.798;2023-08-12T12:30:11;27.00;99.90
7216;DHT22;3649;48.798;9.798;2023-08-12T12:32:39;27.00;99.90
7216;DHT22;3649;48.798;9.798;2023-08-12T12:35:07;27.20;99.90
7216;DHT22;3649;48.798;9.798;2023-08-12T12:37:35;27.10;99.90
7216;DHT22;3649;48.798;9.798;2023-08-12T12:40:03;27.10;99.90
7216;DHT22;3649;48.798;9.798;2023-08-12T12:42:30;27.10;99.90
7216;DHT22;3649;48.798;9.798;2023-08-12T12:44:57;27.10;99.90
7216;DHT22;3649;48.798;9.798;2023-08-12T12:47:24;27.10;99.90
7216;DHT22;3649;48.798;9.798;2023-08-12T12:49:51;27.00;99.90
7216;DHT22;3649;48.798;9.798;2023-08-12T12:52:18;27.00;99.90
7216;DHT22;3649;48.798;9.798;2023-08-12T12:54:45;27.20;99.90
7216;DHT22;3649;48.798;9.798;2023-08-12T12:57:11;27.20;99.90
7216;DHT22;3649;48.798;9.798;2023-08-12T12:59:38;27.30;99.90
7216;DHT22;3649;48.798;9.798;2023-08-12T13:02:05;27.40;99.90
7216;DHT22;3649;48.798;9.798;2023-08-12T13:04:32;27.40;99.90
7216;DHT22;3649;48.798;9.798;2023-08-12T13:06:59;27.50;99.90
7216;DHT22;3649;48.798;9.798;2023-08-12T13:09:26;27.50;99.90
7216;DHT22;3649;48.798;9.798;2023-08-12T13:11:53;27.60;99.90
7216;DHT22;3649;48.798;9.798;2023-08-12T13:14:23;27.70;99.90
7216;DHT22;3649;48.798;9.798;2023-08-12T13:16:50;27.70;99.90
7216;DHT22;3649;48.798;9.798;2023-08-12T13:19:17;27.50;99.90
7216;DHT22;3649;48.798;9.798;2023-08-12T13:21:44;27.40;99.90
7216;DHT22;3649;48.798;9.798;2023-08-12T13:24:11;27.10;99.90
7216;DHT22;3649;48.798;9.798;2023-08-12T13:26:38;26.60;99.90
7216;DHT22;3649;48.798;9.798;2023-08-12T13:29:05;26.20;99.90
7216;DHT22;3649;48.798;9.798;2023-08-12T13:31:32;25.80;99.90
7216;DHT22;3649;48.798;9.798;2023-08-12T13:34:00;25.50;99.90
7216;DHT22;3649;48.798;9.798;2023-08-12T13:36:27;25.10;99.90
7216;DHT22;3649;48.798;9.798;2023-08-12T13:38:53;24.80;99.90
7216;DHT22;3649;48.798;9.798;2023-08-12T13:41:20;24.60;99.90
7216;DHT22;3649;48.798;9.798;2023-08-12T13:43:47;24.30;99.90
7216;DHT22;3649;48.798;9.798;2023-08-12T13:46:14;24.10;99.90
7216;DHT22;3649;48.798;9.798;2023-08-12T13:48:41;24.10;99.90
7216;DHT22;3649;48.798;9.798;2023-08-12T13:51:09;24.10;99.90
7216;DHT22;3649;48.798;9.798;2023-08-12T13:53:36;24.00;99.90
7216;DHT22;3649;48.798;9.798;2023-08-12T13:56:03;23.90;99.90
7216;DHT22;3649;48.798;9.798;2023-08-12T13:58:29;23.80;99.90
7216;DHT22;3649;48.798;9.798;2023-08-12T14:00:56;23.80;99.90
7216;DHT22;3649;48.798;9.798;2023-08-12T14:03:24;23.80;99.90
7216;DHT22;3649;48.798;9.798;2023-08-12T14:05:51;23.70;99.90
7216;DHT22;3649;48.798;9.798;2023-08-12T14:08:18;23.80;99.90
7216;DHT22;3649;48.798;9.798;2023-08-12T14:10:48;23.70;99.90
7216;DHT22;3649;48.798;9.798;2023-08-12T14:13:16;23.70;99.90
7216;DHT22;3649;48.798;9.798;2023-08-12T14:15:44;23.70;99.90
7216;DHT22;3649;48.798;9.798;2023-08-12T14:18:10;23.70;99.90
7216;DHT22;3649;48.798;9.798;2023-08-12T14:20:37;23.70;99.90
7216;DHT22;3649;48.798;9.798;2023-08-12T14:23:04;23.70;99.90
7216;DHT22;3649;48.798;9.798;2023-08-12T14:25:31;23.70;99.90
7216;DHT22;3649;48.798;9.798;2023-08-12T14:27:58;23.70;99.90
7216;DHT22;3649;48.798;9.798;2023-08-12T14:30:25;23.70;99.90
7216;DHT22;3649;48.798;9.798;2023-08-12T14:32:53;23.70;99.90
7216;DHT22;3649;48.798;9.798;2023-08-12T14:35:20;23.80;99.90
7216;DHT22;3649;48.798;9.798;2023-08-12T14:37:47;23.80;99.90
7216;DHT22;3649;48.798;9.798;2023-08-12T14:40:14;23.80;99.90
7216;DHT22;3649;48.798;9.798;2023-08-12T14:42:41;23.90;99.90
7216;DHT22;3649;48.798;9.798;2023-08-12T14:45:09;23.90;99.90
7216;DHT22;3649;48.798;9.798;2023-08-12T14:47:36;24.00;99.90
7216;DHT22;3649;48.798;9.798;2023-08-12T14:50:03;24.00;99.90
7216;DHT22;3649;48.798;9.798;2023-08-12T14:52:31;24.10;99.90
7216;DHT22;3649;48.798;9.798;2023-08-12T14:54:58;24.10;99.90
7216;DHT22;3649;48.798;9.798;2023-08-12T14:57:25;24.10;99.90
7216;DHT22;3649;48.798;9.798;2023-08-12T14:59:52;24.20;99.90
7216;DHT22;3649;48.798;9.798;2023-08-12T15:02:21;24.20;99.90
7216;DHT22;3649;48.798;9.798;2023-08-12T15:04:51;24.30;99.90
7216;DHT22;3649;48.798;9.798;2023-08-12T15:07:18;24.30;99.90
7216;DHT22;3649;48.798;9.798;2023-08-12T15:09:45;24.40;99.90
7216;DHT22;3649;48.798;9.798;2023-08-12T15:12:12;24.40;99.90
7216;DHT22;3649;48.798;9.798;2023-08-12T15:14:39;24.50;99.90
7216;DHT22;3649;48.798;9.798;2023-08-12T15:17:06;24.50;99.90
7216;DHT22;3649;48.798;9.798;2023-08-12T15:19:33;24.60;99.90
7216;DHT22;3649;48.798;9.798;2023-08-12T15:22:00;24.60;99.90
7216;DHT22;3649;48.798;9.798;2023-08-12T15:24:27;24.60;99.90
7216;DHT22;3649;48.798;9.798;2023-08-12T15:26:54;24.60;99.90
7216;DHT22;3649;48.798;9.798;2023-08-12T15:29:21;24.60;99.90
7216;DHT22;3649;48.798;9.798;2023-08-12T15:31:48;24.60;99.90
7216;DHT22;3649;48.798;9.798;2023-08-12T15:34:15;24.60;99.90
7216;DHT22;3649;48.798;9.798;2023-08-12T15:36:43;24.60;99.90
7216;DHT22;3649;48.798;9.798;2023-08-12T15:39:11;24.60;99.90
7216;DHT22;3649;48.798;9.798;2023-08-12T15:41:44;24.60;99.90
7216;DHT22;3649;48.798;9.798;2023-08-12T15:44:11;24.70;99.90
7216;DHT22;3649;48.798;9.798;2023-08-12T15:46:39;24.60;99.90
7216;DHT22;3649;48.798;9.798;2023-08-12T15:49:07;24.60;99.90
7216;DHT22;3649;48.798;9.798;2023-08-12T15:51:38;24.60;99.90
7216;DHT22;3649;48.798;9.798;2023-08-12T15:54:06;24.60;99.90
7216;DHT22;3649;48.798;9.798;2023-08-12T15:56:33;24.60;99.90
7216;DHT22;3649;48.798;9.798;2023-08-12T15:59:06;24.70;99.90
7216;DHT22;3649;48.798;9.798;2023-08-12T16:01:33;24.70;99.90
7216;DHT22;3649;48.798;9.798;2023-08-12T16:04:00;24.70;99.90
7216;DHT22;3649;48.798;9.798;2023-08-12T16:06:27;24.70;99.90
7216;DHT22;3649;48.798;9.798;2023-08-12T16:08:55;24.70;99.90
7216;DHT22;3649;48.798;9.798;2023-08-12T16:11:41;24.60;99.90